Time;durP1;ratioP1;P1;durP2;ratioP2;P2;SDS_P1;SDS_P2;PMS_P1;PMS_P2;Temp;Humidity;BMP_temperature;BMP_pressure;BME280_temperature;BME280_humidity;BME280_pressure;Samples;Min_cycle;Max_cycle;Signal;HPM_P1;HPM_P2
2022/05/12 00:01:32;;;;;;;23.00;17.20;;;;;;;-145.52;100.00;57022.44;5051762;28;20116;-64
2022/05/12 00:03:58;;;;;;;21.35;16.52;;;;;;;-145.52;100.00;57022.44;5038120;28;20041;-64
2022/05/12 00:06:23;;;;;;;21.80;17.15;;;;;;;-145.52;100.00;57022.44;5035975;28;20041;-64
2022/05/12 00:08:49;;;;;;;25.00;17.17;;;;;;;-145.52;100.00;57022.44;5070855;28;20131;-63
2022/05/12 00:11:14;;;;;;;23.63;16.98;;;;;;;-145.52;100.00;57022.44;5073512;28;20028;-63
2022/05/12 00:13:40;;;;;;;22.48;15.48;;;;;;;-145.52;100.00;57022.44;5072809;28;20086;-63
2022/05/12 00:16:05;;;;;;;22.23;16.73;;;;;;;-145.52;100.00;57022.44;5073442;28;20090;-63
2022/05/12 00:18:30;;;;;;;20.63;15.02;;;;;;;-145.52;100.00;57022.44;5061809;28;20998;-63
2022/05/12 00:20:56;;;;;;;18.83;14.82;;;;;;;-145.52;100.00;57022.44;5073429;28;20476;-63
2022/05/12 00:23:27;;;;;;;23.42;15.80;;;;;;;-145.52;100.00;57022.44;5067029;28;20043;-63
2022/05/12 00:25:53;;;;;;;18.00;13.95;;;;;;;-145.52;100.00;57022.44;5071217;28;20036;-63
2022/05/12 00:28:22;;;;;;;19.02;13.60;;;;;;;-145.52;100.00;57022.44;5073120;28;20056;-63
2022/05/12 00:30:50;;;;;;;18.02;12.77;;;;;;;-145.52;100.00;57022.44;5071801;28;20040;-63
2022/05/12 00:33:16;;;;;;;19.80;14.00;;;;;;;-145.52;100.00;57022.44;5073216;28;20028;-63
2022/05/12 00:35:43;;;;;;;18.95;14.45;;;;;;;-145.52;100.00;57022.44;5076843;28;20447;-63
2022/05/12 00:38:10;;;;;;;19.23;14.27;;;;;;;-145.52;100.00;57022.44;5073505;28;20130;-63
2022/05/12 00:40:38;;;;;;;18.23;13.80;;;;;;;-145.52;100.00;57022.44;5074654;28;20391;-63
2022/05/12 00:43:06;;;;;;;14.23;12.05;;;;;;;-145.52;100.00;57022.44;5072508;28;20090;-63
2022/05/12 00:45:38;;;;;;;18.05;14.38;;;;;;;-145.52;100.00;57022.44;5078116;28;20048;-63
2022/05/12 00:48:05;;;;;;;20.52;13.13;;;;;;;-145.52;100.00;57022.44;5072803;28;20035;-64
2022/05/12 00:50:35;;;;;;;17.65;13.90;;;;;;;-145.52;100.00;57022.44;5051821;28;20060;-63
2022/05/12 00:53:06;;;;;;;21.08;14.98;;;;;;;-145.52;100.00;57022.44;5071342;28;20032;-63
2022/05/12 00:55:35;;;;;;;19.95;14.18;;;;;;;-145.52;100.00;57022.44;5071026;28;20029;-63
2022/05/12 00:58:04;;;;;;;18.05;14.27;;;;;;;-145.52;100.00;57022.44;5070788;28;20487;-63
2022/05/12 01:00:29;;;;;;;16.50;12.77;;;;;;;-145.52;100.00;57022.44;5053890;28;20392;-63
2022/05/12 01:02:58;;;;;;;16.30;12.75;;;;;;;-145.52;100.00;57022.44;5081189;28;20039;-63
2022/05/12 01:05:24;;;;;;;20.33;14.85;;;;;;;-145.52;100.00;57022.44;5066216;28;20044;-63
2022/05/12 01:07:55;;;;;;;19.23;12.57;;;;;;;-145.52;100.00;57022.44;5053354;28;20049;-63
2022/05/12 01:10:21;;;;;;;19.52;14.55;;;;;;;-145.52;100.00;57022.44;5071010;28;20024;-63
2022/05/12 01:12:51;;;;;;;23.55;17.13;;;;;;;-145.52;100.00;57022.44;5070035;28;20032;-63
2022/05/12 01:15:18;;;;;;;18.35;13.77;;;;;;;-145.52;100.00;57022.44;5071934;28;20115;-63
2022/05/12 01:17:45;;;;;;;18.23;13.85;;;;;;;-145.52;100.00;57022.44;5072692;28;20033;-63
2022/05/12 01:20:11;;;;;;;18.50;13.35;;;;;;;-145.52;100.00;57022.44;5069333;28;20040;-65
2022/05/12 01:22:50;;;;;;;20.77;15.80;;;;;;;-145.52;100.00;57022.44;5072679;28;20136;-64
2022/05/12 01:25:19;;;;;;;17.73;13.93;;;;;;;-145.52;100.00;57022.44;5070006;28;20460;-64
2022/05/12 01:27:45;;;;;;;16.88;13.10;;;;;;;-145.52;100.00;57022.44;5071277;28;20472;-64
2022/05/12 01:30:15;;;;;;;17.35;13.73;;;;;;;-145.52;100.00;57022.44;5070564;28;20047;-64
2022/05/12 01:32:43;;;;;;;15.55;12.73;;;;;;;-145.52;100.00;57022.44;5070314;28;20373;-65
2022/05/12 01:35:11;;;;;;;19.00;14.32;;;;;;;-145.52;100.00;57022.44;5058785;28;20048;-65
2022/05/12 01:37:39;;;;;;;19.83;15.25;;;;;;;-145.52;100.00;57022.44;5052279;28;20040;-65
2022/05/12 01:40:05;;;;;;;18.90;14.00;;;;;;;-145.52;100.00;57022.44;5070896;28;20093;-64
2022/05/12 01:42:31;;;;;;;15.27;12.82;;;;;;;-145.52;100.00;57022.44;5053251;28;20039;-65
2022/05/12 01:44:56;;;;;;;16.33;13.65;;;;;;;-145.52;100.00;57022.44;5071850;28;20033;-63
2022/05/12 01:47:22;;;;;;;15.57;12.98;;;;;;;-145.52;100.00;57022.44;5070858;28;20033;-65
2022/05/12 01:49:48;;;;;;;16.85;13.45;;;;;;;-145.52;100.00;57022.44;5072027;28;20159;-65
2022/05/12 01:52:13;;;;;;;15.70;12.45;;;;;;;-145.52;100.00;57022.44;5071436;28;20037;-65
2022/05/12 01:54:39;;;;;;;16.98;13.23;;;;;;;-145.52;100.00;57022.44;5070969;28;20376;-65
2022/05/12 01:57:05;;;;;;;16.77;12.55;;;;;;;-145.52;100.00;57022.44;5072046;28;21794;-65
2022/05/12 01:59:31;;;;;;;16.38;11.93;;;;;;;-145.52;100.00;57022.44;5070832;28;20111;-65
2022/05/12 02:01:56;;;;;;;13.40;11.15;;;;;;;-145.52;100.00;57022.44;5076870;28;20042;-65
2022/05/12 02:04:21;;;;;;;16.88;12.70;;;;;;;-145.52;100.00;57022.44;5072241;28;20111;-64
2022/05/12 02:06:47;;;;;;;14.25;11.50;;;;;;;-145.52;100.00;57022.44;5069623;28;20049;-64
2022/05/12 02:09:13;;;;;;;14.40;12.45;;;;;;;-145.52;100.00;57022.44;5070680;28;20120;-65
2022/05/12 02:11:38;;;;;;;17.10;14.05;;;;;;;-145.52;100.00;57022.44;5072063;28;20104;-66
2022/05/12 02:14:05;;;;;;;18.83;12.45;;;;;;;-145.52;100.00;57022.44;5075337;28;20233;-65
2022/05/12 02:16:33;;;;;;;15.00;11.07;;;;;;;-145.52;100.00;57022.44;5070262;28;20032;-65
2022/05/12 02:18:59;;;;;;;14.68;11.70;;;;;;;-145.52;100.00;57022.44;5058916;28;20511;-66
2022/05/12 02:21:25;;;;;;;16.02;12.38;;;;;;;-145.52;100.00;57022.44;5050042;28;20526;-66
2022/05/12 02:23:50;;;;;;;12.25;10.30;;;;;;;-145.52;100.00;57022.44;5071971;28;20033;-66
2022/05/12 02:26:16;;;;;;;14.60;11.30;;;;;;;-145.52;100.00;57022.44;5070622;28;20163;-66
2022/05/12 02:28:41;;;;;;;11.95;9.93;;;;;;;-145.52;100.00;57022.44;5075632;28;20036;-66
2022/05/12 02:31:07;;;;;;;13.95;11.18;;;;;;;-145.52;100.00;57022.44;5073364;28;20463;-66
2022/05/12 02:33:33;;;;;;;12.57;11.07;;;;;;;-145.52;100.00;57022.44;5054333;28;20037;-65
2022/05/12 02:35:58;;;;;;;12.07;10.85;;;;;;;-145.52;100.00;57022.44;5071710;28;20028;-65
2022/05/12 02:38:24;;;;;;;13.73;10.32;;;;;;;-145.52;100.00;57022.44;5053858;28;20036;-65
2022/05/12 02:40:49;;;;;;;14.02;11.77;;;;;;;-145.52;100.00;57022.44;5071890;28;20039;-65
2022/05/12 02:43:24;;;;;;;12.23;10.82;;;;;;;-145.52;100.00;57022.44;5074208;28;20107;-64
2022/05/12 02:45:55;;;;;;;15.93;12.18;;;;;;;-145.52;100.00;57022.44;5075724;28;20181;-65
2022/05/12 02:48:24;;;;;;;12.90;11.35;;;;;;;-145.52;100.00;57022.44;5076769;28;20039;-66
2022/05/12 02:50:50;;;;;;;11.88;10.40;;;;;;;-145.52;100.00;57022.44;5078697;28;20028;-65
2022/05/12 02:53:16;;;;;;;13.35;11.02;;;;;;;-145.52;100.00;57022.44;5074190;28;20040;-66
2022/05/12 02:55:41;;;;;;;15.75;13.40;;;;;;;-145.52;100.00;57022.44;5073128;28;20025;-66
2022/05/12 02:58:07;;;;;;;16.77;11.88;;;;;;;-145.52;100.00;57022.44;5071333;28;20126;-65
2022/05/12 03:00:33;;;;;;;13.90;11.15;;;;;;;-145.52;100.00;57022.44;5074607;28;20035;-65
2022/05/12 03:02:59;;;;;;;13.35;10.65;;;;;;;-145.52;100.00;57022.44;5074853;28;20407;-65
2022/05/12 03:05:25;;;;;;;15.98;12.95;;;;;;;-145.52;100.00;57022.44;5075373;28;20039;-66
2022/05/12 03:07:51;;;;;;;15.98;13.07;;;;;;;-145.52;100.00;57022.44;5074647;28;20037;-66
2022/05/12 03:10:16;;;;;;;14.63;12.15;;;;;;;-145.52;100.00;57022.44;5073736;28;20056;-65
2022/05/12 03:12:42;;;;;;;14.95;12.32;;;;;;;-145.52;100.00;57022.44;5075175;28;20064;-65
2022/05/12 03:15:10;;;;;;;13.65;11.73;;;;;;;-145.52;100.00;57022.44;5074175;28;20445;-65
2022/05/12 03:17:36;;;;;;;15.35;12.55;;;;;;;-145.52;100.00;57022.44;5075124;28;20067;-66
2022/05/12 03:20:04;;;;;;;15.50;11.77;;;;;;;-145.52;100.00;57022.44;5074392;28;20060;-66
2022/05/12 03:22:30;;;;;;;14.88;12.07;;;;;;;-145.52;100.00;57022.44;5072830;28;20028;-67
2022/05/12 03:24:55;;;;;;;14.93;11.50;;;;;;;-145.52;100.00;57022.44;5073308;28;20116;-66
2022/05/12 03:27:21;;;;;;;15.15;12.93;;;;;;;-145.52;100.00;57022.44;5072793;28;20066;-66
2022/05/12 03:29:46;;;;;;;16.58;12.07;;;;;;;-145.52;100.00;57022.44;5071407;28;20428;-66
2022/05/12 03:32:12;;;;;;;13.95;10.75;;;;;;;-145.52;100.00;57022.44;5074264;28;20460;-66
2022/05/12 03:34:39;;;;;;;16.52;12.13;;;;;;;-145.52;100.00;57022.44;5073614;28;20089;-66
2022/05/12 03:37:07;;;;;;;13.93;10.98;;;;;;;-145.52;100.00;57022.44;5072079;28;20049;-66
2022/05/12 03:39:33;;;;;;;15.40;12.38;;;;;;;-145.52;100.00;57022.44;5074557;28;20484;-67
2022/05/12 03:41:58;;;;;;;13.75;10.90;;;;;;;-145.52;100.00;57022.44;5071818;28;20475;-66
2022/05/12 03:47:08;;;;;;;13.25;10.73;;;;;;;-145.52;100.00;57022.44;5074315;28;20097;-66
2022/05/12 03:49:33;;;;;;;12.75;11.05;;;;;;;-145.52;100.00;57022.44;5074538;28;20025;-66
2022/05/12 03:51:59;;;;;;;12.00;10.57;;;;;;;-145.52;100.00;57022.44;5065680;28;20038;-67
2022/05/12 03:54:24;;;;;;;18.08;13.40;;;;;;;-145.52;100.00;57022.44;5059845;28;20373;-66
2022/05/12 03:56:50;;;;;;;19.77;13.38;;;;;;;-145.52;100.00;57022.44;5061802;28;20029;-67
2022/05/12 03:59:15;;;;;;;12.30;11.00;;;;;;;-145.52;100.00;57022.44;5071957;28;20468;-68
2022/05/12 04:01:41;;;;;;;14.82;11.98;;;;;;;-145.52;100.00;57022.44;5073989;28;20041;-68
2022/05/12 04:04:06;;;;;;;12.65;11.32;;;;;;;-145.52;100.00;57022.44;5073454;28;20123;-67
2022/05/12 04:06:32;;;;;;;18.45;12.98;;;;;;;-145.52;100.00;57022.44;5072314;28;20060;-68
2022/05/12 04:08:57;;;;;;;15.73;12.10;;;;;;;-145.52;100.00;57022.44;5070785;28;20101;-68
2022/05/12 04:11:23;;;;;;;16.10;13.68;;;;;;;-145.52;100.00;57022.44;5072543;28;20039;-68
2022/05/12 04:13:48;;;;;;;20.17;13.80;;;;;;;-145.52;100.00;57022.44;5072783;28;20028;-68
2022/05/12 04:16:15;;;;;;;18.83;15.73;;;;;;;-145.52;100.00;57022.44;5072546;28;20535;-68
2022/05/12 04:18:41;;;;;;;14.93;12.98;;;;;;;-145.52;100.00;57022.44;5071496;28;20192;-68
2022/05/12 04:21:06;;;;;;;19.40;14.63;;;;;;;-145.52;100.00;57022.44;5058709;28;21005;-67
2022/05/12 04:23:32;;;;;;;20.52;16.75;;;;;;;-145.52;100.00;57022.44;5059961;28;20044;-67
2022/05/12 04:25:57;;;;;;;17.90;14.30;;;;;;;-145.52;100.00;57022.44;5070222;28;20066;-67
2022/05/12 04:28:22;;;;;;;20.30;16.10;;;;;;;-145.52;100.00;57022.44;5074370;28;20036;-69
2022/05/12 04:30:48;;;;;;;17.95;15.43;;;;;;;-145.52;100.00;57022.44;5074867;28;20112;-67
2022/05/12 04:35:57;;;;;;;20.42;16.10;;;;;;;-145.52;100.00;57022.44;5073280;28;20462;-70
2022/05/12 04:38:23;;;;;;;18.67;14.88;;;;;;;-145.52;100.00;57022.44;5072786;28;20472;-69
2022/05/12 04:40:51;;;;;;;20.42;15.65;;;;;;;-145.52;100.00;57022.44;5073344;28;20029;-69
2022/05/12 04:43:17;;;;;;;20.45;16.15;;;;;;;-145.52;100.00;57022.44;5075495;28;20027;-70
2022/05/12 04:45:43;;;;;;;19.55;15.90;;;;;;;-145.52;100.00;57022.44;5071325;28;20119;-69
2022/05/12 04:48:09;;;;;;;16.00;13.23;;;;;;;-145.52;100.00;57022.44;5069085;28;20036;-67
2022/05/12 04:50:36;;;;;;;14.52;12.73;;;;;;;-145.52;100.00;57022.44;5084816;28;20028;-69
2022/05/12 04:53:02;;;;;;;21.77;16.75;;;;;;;-145.52;100.00;57022.44;5077078;28;20131;-69
2022/05/12 04:55:29;;;;;;;20.55;16.65;;;;;;;-145.52;100.00;57022.44;5081858;28;20107;-67
2022/05/12 04:57:56;;;;;;;17.65;15.00;;;;;;;-145.52;100.00;57022.44;5091522;28;20043;-69
2022/05/12 05:00:43;;;;;;;17.83;15.40;;;;;;;-145.52;100.00;57022.44;5093804;28;20399;-67
2022/05/12 05:03:10;;;;;;;14.40;12.85;;;;;;;-145.52;100.00;57022.44;5084108;28;20041;-69
2022/05/12 05:05:36;;;;;;;16.33;14.50;;;;;;;-145.52;100.00;57022.44;5071445;28;20101;-70
2022/05/12 05:08:02;;;;;;;16.50;14.27;;;;;;;-145.52;100.00;57022.44;5070138;28;20480;-69
2022/05/12 05:10:28;;;;;;;16.65;13.27;;;;;;;-145.52;100.00;57022.44;5072720;28;20056;-70
2022/05/12 05:12:54;;;;;;;20.00;15.90;;;;;;;-145.52;100.00;57022.44;5071200;28;20465;-69
2022/05/12 05:15:21;;;;;;;22.52;16.85;;;;;;;-145.52;100.00;57022.44;5070655;28;20391;-69
2022/05/12 05:17:47;;;;;;;17.92;14.85;;;;;;;-145.52;100.00;57022.44;5071080;28;20024;-71
2022/05/12 05:20:17;;;;;;;14.02;12.27;;;;;;;-145.52;100.00;57022.44;5073651;28;20047;-71
2022/05/12 05:22:43;;;;;;;15.35;13.65;;;;;;;-145.52;100.00;57022.44;5071319;28;21175;-70
2022/05/12 05:25:09;;;;;;;17.02;14.35;;;;;;;-145.52;100.00;57022.44;5072149;28;20033;-71
2022/05/12 05:27:35;;;;;;;14.07;12.18;;;;;;;-145.52;100.00;57022.44;5072600;28;20387;-71
2022/05/12 05:30:01;;;;;;;15.60;13.05;;;;;;;-145.52;100.00;57022.44;5053635;28;20029;-70
2022/05/12 05:32:27;;;;;;;15.02;12.25;;;;;;;-145.52;100.00;57022.44;5072673;28;20039;-73
2022/05/12 05:34:52;;;;;;;15.73;13.20;;;;;;;-145.52;100.00;57022.44;5072358;28;20037;-72
2022/05/12 05:37:18;;;;;;;16.20;13.90;;;;;;;-145.52;100.00;57022.44;5072190;28;20037;-72
2022/05/12 05:39:43;;;;;;;15.70;12.88;;;;;;;-145.52;100.00;57022.44;5070778;28;20043;-73
2022/05/12 05:42:14;;;;;;;17.38;13.95;;;;;;;-145.52;100.00;57022.44;5083653;28;20036;-72
2022/05/12 05:44:40;;;;;;;17.70;13.13;;;;;;;-145.52;100.00;57022.44;5074519;28;20071;-72
2022/05/12 05:47:07;;;;;;;17.80;14.30;;;;;;;-145.52;100.00;57022.44;5070529;28;20068;-73
2022/05/12 05:49:34;;;;;;;16.10;12.63;;;;;;;-145.52;100.00;57022.44;5072590;28;20036;-73
2022/05/12 05:54:45;;;;;;;16.55;13.00;;;;;;;-145.52;100.00;57022.44;5072235;28;20075;-74
2022/05/12 05:57:11;;;;;;;15.82;13.00;;;;;;;-145.52;100.00;57022.44;5071343;28;20047;-71
2022/05/12 05:59:37;;;;;;;15.00;11.80;;;;;;;-145.52;100.00;57022.44;5073062;28;20400;-73
2022/05/12 06:02:04;;;;;;;14.88;11.23;;;;;;;-145.52;100.00;57022.44;5073438;28;20457;-74
2022/05/12 06:04:29;;;;;;;17.08;12.75;;;;;;;-145.52;100.00;57022.44;5070928;28;20051;-74
2022/05/12 06:06:55;;;;;;;16.65;12.05;;;;;;;-145.52;100.00;57022.44;5085888;28;20052;-74
2022/05/12 06:09:20;;;;;;;17.50;12.02;;;;;;;-145.52;100.00;57022.44;5075921;28;20036;-74
2022/05/12 06:11:46;;;;;;;13.68;11.38;;;;;;;-145.52;100.00;57022.44;5077349;28;20472;-72
2022/05/12 06:14:12;;;;;;;14.30;11.10;;;;;;;-145.52;100.00;57022.44;5053400;28;20067;-74
2022/05/12 06:16:38;;;;;;;15.95;12.80;;;;;;;-145.52;100.00;57022.44;5059627;28;20041;-74
2022/05/12 06:19:06;;;;;;;14.32;11.98;;;;;;;-145.52;100.00;57022.44;5075473;28;20060;-74
2022/05/12 06:21:35;;;;;;;18.02;13.05;;;;;;;-145.52;100.00;57022.44;5074183;28;20044;-72
2022/05/12 06:24:01;;;;;;;14.10;11.52;;;;;;;-145.52;100.00;57022.44;5071859;28;20452;-74
2022/05/12 06:26:26;;;;;;;16.13;12.70;;;;;;;-145.52;100.00;57022.44;5071778;28;20231;-73
2022/05/12 06:28:51;;;;;;;14.38;12.50;;;;;;;-145.52;100.00;57022.44;5073092;28;20066;-70
2022/05/12 06:31:25;;;;;;;16.88;13.65;;;;;;;-145.52;100.00;57022.44;5056578;28;20033;-74
2022/05/12 06:33:54;;;;;;;13.48;11.55;;;;;;;-145.52;100.00;57022.44;5075164;28;20020;-73
2022/05/12 06:36:19;;;;;;;12.25;10.90;;;;;;;-145.52;100.00;57022.44;5071556;28;20047;-74
2022/05/12 06:38:45;;;;;;;15.77;12.55;;;;;;;-145.52;100.00;57022.44;5074888;28;20024;-71
2022/05/12 06:41:11;;;;;;;14.20;11.18;;;;;;;-145.52;100.00;57022.44;5074965;28;20074;-69
2022/05/12 06:43:36;;;;;;;14.85;12.07;;;;;;;-145.52;100.00;57022.44;5074587;28;20024;-69
2022/05/12 06:46:03;;;;;;;13.23;11.50;;;;;;;-145.52;100.00;57022.44;5074132;28;20222;-67
2022/05/12 06:48:29;;;;;;;16.73;11.30;;;;;;;-145.52;100.00;57022.44;5074328;28;20044;-69
2022/05/12 06:50:54;;;;;;;13.25;11.05;;;;;;;-145.52;100.00;57022.44;5074579;28;20031;-69
2022/05/12 06:53:20;;;;;;;13.68;10.63;;;;;;;-145.52;100.00;57022.44;5074984;28;20457;-67
2022/05/12 06:55:46;;;;;;;13.57;11.75;;;;;;;-145.52;100.00;57022.44;5073831;28;20028;-67
2022/05/12 06:58:17;;;;;;;16.88;11.65;;;;;;;-145.52;100.00;57022.44;5074618;28;20044;-68
2022/05/12 07:00:42;;;;;;;21.50;14.38;;;;;;;-145.52;100.00;57022.44;5071204;28;20040;-67
2022/05/12 07:03:09;;;;;;;19.42;14.07;;;;;;;-145.52;100.00;57022.44;5073458;28;20081;-68
2022/05/12 07:05:34;;;;;;;22.05;14.32;;;;;;;-145.52;100.00;57022.44;5073664;28;20028;-68
2022/05/12 07:08:00;;;;;;;21.08;15.07;;;;;;;-145.52;100.00;57022.44;5070831;28;20514;-70
2022/05/12 07:10:26;;;;;;;20.52;14.68;;;;;;;-145.52;100.00;57022.44;5072365;28;20043;-70
2022/05/12 07:12:52;;;;;;;20.33;14.85;;;;;;;-145.52;100.00;57022.44;5073584;28;20037;-70
2022/05/12 07:15:18;;;;;;;17.55;13.90;;;;;;;-145.52;100.00;57022.44;5072583;28;20060;-69
2022/05/12 07:17:44;;;;;;;18.48;14.95;;;;;;;-145.52;100.00;57022.44;5073594;28;20081;-68
2022/05/12 07:28:28;;;;;;;17.30;13.02;;;;;;;-145.52;100.00;57022.44;5072868;28;20089;-68
2022/05/12 07:31:03;;;;;;;19.17;13.85;;;;;;;-145.52;100.00;57022.44;5070438;28;20040;-69
2022/05/12 07:33:35;;;;;;;17.30;14.32;;;;;;;-145.52;100.00;57022.44;5075670;28;20040;-70
2022/05/12 07:36:03;;;;;;;16.83;13.02;;;;;;;-145.52;100.00;57022.44;5070712;28;20032;-69
2022/05/12 07:38:29;;;;;;;16.50;13.00;;;;;;;-145.52;100.00;57022.44;5074324;28;20043;-68
2022/05/12 07:40:54;;;;;;;18.63;12.90;;;;;;;-145.52;100.00;57022.44;5074285;28;20119;-68
2022/05/12 07:43:20;;;;;;;18.98;11.70;;;;;;;-145.52;100.00;57022.44;5073320;28;20360;-68
2022/05/12 07:45:47;;;;;;;16.40;13.02;;;;;;;-145.52;100.00;57022.44;5072053;28;20035;-68
2022/05/12 07:48:12;;;;;;;13.80;10.20;;;;;;;-145.52;100.00;57022.44;5070363;28;20040;-67
2022/05/12 07:50:39;;;;;;;12.35;8.57;;;;;;;-145.52;100.00;57022.44;5073634;28;20377;-69
2022/05/12 07:53:06;;;;;;;13.95;7.00;;;;;;;-145.52;100.00;57022.44;5074534;28;20032;-70
2022/05/12 07:55:32;;;;;;;14.32;7.22;;;;;;;-145.52;100.00;57022.44;5071671;28;20089;-67
2022/05/12 07:57:59;;;;;;;10.90;6.22;;;;;;;-145.52;100.00;57022.44;5072896;28;20035;-69
2022/05/12 08:00:25;;;;;;;8.05;5.30;;;;;;;-145.52;100.00;57022.44;5073075;28;20052;-68
2022/05/12 08:02:51;;;;;;;9.68;5.45;;;;;;;-145.52;100.00;57022.44;5072284;28;20393;-69
2022/05/12 08:05:18;;;;;;;8.88;4.95;;;;;;;-145.52;100.00;57022.44;5070249;28;20535;-65
2022/05/12 08:07:45;;;;;;;6.15;3.95;;;;;;;-145.52;100.00;57022.44;5072524;28;20131;-68
2022/05/12 08:10:11;;;;;;;8.88;4.10;;;;;;;-145.52;100.00;57022.44;5070511;28;20064;-67
2022/05/12 08:12:36;;;;;;;4.80;3.20;;;;;;;-145.52;100.00;57022.44;5073747;28;20060;-67
2022/05/12 08:15:03;;;;;;;5.50;4.00;;;;;;;-145.52;100.00;57022.44;5071424;28;20050;-67
2022/05/12 08:17:28;;;;;;;6.30;3.35;;;;;;;-145.52;100.00;57022.44;5073467;28;20036;-67
2022/05/12 08:19:54;;;;;;;6.28;2.83;;;;;;;-145.52;100.00;57022.44;5073168;28;20075;-67
2022/05/12 08:22:19;;;;;;;5.82;2.78;;;;;;;-145.52;100.00;57022.44;5064331;28;20051;-66
2022/05/12 08:24:44;;;;;;;4.18;2.22;;;;;;;-145.52;100.00;57022.44;5063913;28;20045;-67
2022/05/12 08:27:10;;;;;;;2.03;1.58;;;;;;;-145.52;100.00;57022.44;5071312;28;20647;-67
2022/05/12 08:29:35;;;;;;;3.50;1.50;;;;;;;-145.52;100.00;57022.44;5072982;28;20059;-67
2022/05/12 08:32:01;;;;;;;2.58;1.48;;;;;;;-145.52;100.00;57022.44;5072872;28;20066;-67
2022/05/12 08:34:28;;;;;;;3.60;1.90;;;;;;;-145.52;100.00;57022.44;5071804;28;20120;-67
2022/05/12 08:36:54;;;;;;;4.00;2.00;;;;;;;-145.52;100.00;57022.44;5074477;28;20411;-66
2022/05/12 08:39:19;;;;;;;3.45;1.88;;;;;;;-145.52;100.00;57022.44;5071353;28;20060;-67
2022/05/12 08:41:51;;;;;;;3.45;1.90;;;;;;;-145.52;100.00;57022.44;5070931;28;20060;-67
2022/05/12 08:44:20;;;;;;;3.20;1.80;;;;;;;-145.52;100.00;57022.44;5072889;28;20028;-67
2022/05/12 08:46:53;;;;;;;3.67;1.80;;;;;;;-145.52;100.00;57022.44;5073125;28;20036;-67
2022/05/12 08:49:42;;;;;;;3.13;1.65;;;;;;;-145.52;100.00;57022.44;5070915;28;20044;-67
2022/05/12 08:52:13;;;;;;;2.65;1.63;;;;;;;-145.52;100.00;57022.44;5072384;28;20044;-67
2022/05/12 08:54:42;;;;;;;3.50;1.48;;;;;;;-145.52;100.00;57022.44;5072370;28;20472;-68
2022/05/12 08:57:31;;;;;;;2.55;1.25;;;;;;;-145.52;100.00;57022.44;5073102;28;20124;-67
2022/05/12 08:59:58;;;;;;;1.75;1.05;;;;;;;-145.52;100.00;57022.44;5071393;28;20028;-67
2022/05/12 09:02:32;;;;;;;1.17;0.80;;;;;;;-145.52;100.00;57022.44;5072442;28;20108;-67
2022/05/12 09:05:00;;;;;;;1.95;0.90;;;;;;;-145.52;100.00;57022.44;5072659;28;20068;-67
2022/05/12 09:07:40;;;;;;;2.53;0.60;;;;;;;-145.52;100.00;57022.44;5067557;28;20040;-67
2022/05/12 09:10:10;;;;;;;2.25;0.52;;;;;;;-145.52;100.00;57022.44;5072819;28;20119;-67
2022/05/12 09:13:01;;;;;;;2.67;0.60;;;;;;;-145.52;100.00;57022.44;5072196;28;20443;-67
2022/05/12 09:15:41;;;;;;;0.80;0.50;;;;;;;-145.52;100.00;57022.44;5068963;28;20028;-68
2022/05/12 09:18:29;;;;;;;0.90;0.50;;;;;;;-145.52;100.00;57022.44;5069938;28;20020;-68
2022/05/12 09:21:00;;;;;;;2.83;0.40;;;;;;;-145.52;100.00;57022.44;5084612;28;20052;-68
2022/05/12 09:23:25;;;;;;;1.27;0.68;;;;;;;-145.52;100.00;57022.44;5072286;28;20035;-68
2022/05/12 09:25:52;;;;;;;1.52;0.52;;;;;;;-145.52;100.00;57022.44;5072185;28;20045;-68
2022/05/12 09:28:33;;;;;;;1.38;0.70;;;;;;;-145.52;100.00;57022.44;5073622;28;20028;-68
2022/05/12 09:31:02;;;;;;;3.13;0.68;;;;;;;-145.52;100.00;57022.44;5070553;28;20021;-68
2022/05/12 09:33:35;;;;;;;1.90;0.70;;;;;;;-145.52;100.00;57022.44;5070387;28;20078;-68
2022/05/12 09:36:05;;;;;;;2.72;0.55;;;;;;;-145.52;100.00;57022.44;5071010;28;20490;-67
2022/05/12 09:38:39;;;;;;;1.27;0.40;;;;;;;-145.52;100.00;57022.44;5068426;28;20437;-68
2022/05/12 09:41:17;;;;;;;0.80;0.32;;;;;;;-145.52;100.00;57022.44;5071622;28;20025;-68
2022/05/12 09:43:44;;;;;;;3.20;0.35;;;;;;;-145.52;100.00;57022.44;5067995;28;20036;-69
2022/05/12 09:46:16;;;;;;;3.42;0.30;;;;;;;-145.52;100.00;57022.44;5071893;28;20063;-69
2022/05/12 09:48:42;;;;;;;1.83;0.30;;;;;;;-145.52;100.00;57022.44;5072338;28;20078;-68
2022/05/12 09:51:25;;;;;;;1.75;0.38;;;;;;;-145.52;100.00;57022.44;5072474;28;20035;-69
2022/05/12 09:53:53;;;;;;;0.95;0.30;;;;;;;-145.52;100.00;57022.44;5075518;28;20028;-68
2022/05/12 09:56:36;;;;;;;1.20;0.20;;;;;;;-145.52;100.00;57022.44;5072440;28;20036;-69
2022/05/12 09:59:14;;;;;;;2.65;0.38;;;;;;;-145.52;100.00;57022.44;5073520;28;20051;-67
2022/05/12 10:01:58;;;;;;;3.17;0.45;;;;;;;-145.52;100.00;57022.44;5076931;28;20032;-68
2022/05/12 10:10:12;;;;;;;0.75;0.30;;;;;;;-145.52;100.00;57022.44;5075194;28;20114;-66
2022/05/12 10:12:54;;;;;;;3.72;0.43;;;;;;;-145.52;100.00;57022.44;5075674;28;20559;-67
2022/05/12 10:15:27;;;;;;;1.70;0.40;;;;;;;-145.52;100.00;57022.44;5072829;28;20033;-68
2022/05/12 10:18:16;;;;;;;1.65;0.50;;;;;;;-145.52;100.00;57022.44;5075752;28;20032;-69
2022/05/12 10:20:46;;;;;;;2.42;0.60;;;;;;;-145.52;100.00;57022.44;5074006;28;20029;-68
2022/05/12 10:23:22;;;;;;;5.60;0.40;;;;;;;-145.52;100.00;57022.44;5073016;28;20040;-67
2022/05/12 10:26:02;;;;;;;3.53;0.38;;;;;;;-145.52;100.00;57022.44;5073078;28;20039;-68
2022/05/12 10:28:36;;;;;;;2.25;0.75;;;;;;;-145.52;100.00;57022.44;5072190;28;20028;-68
2022/05/12 10:31:22;;;;;;;2.50;0.90;;;;;;;-145.52;100.00;57022.44;5072162;28;20036;-67
2022/05/12 10:34:00;;;;;;;4.47;0.98;;;;;;;-145.52;100.00;57022.44;5068367;28;20035;-66
2022/05/12 10:36:59;;;;;;;0.95;0.30;;;;;;;-145.52;100.00;57022.44;5071659;28;20047;-68
2022/05/12 10:39:43;;;;;;;2.22;0.40;;;;;;;-145.52;100.00;57022.44;5073016;28;20077;-68
2022/05/12 10:42:36;;;;;;;2.35;1.15;;;;;;;-145.52;100.00;57022.44;5073095;28;20404;-67
2022/05/12 10:45:07;;;;;;;;;;;;;;;-145.52;100.00;57022.44;5073818;28;20434;-68
2022/05/12 10:47:51;;;;;;;2.38;0.30;;;;;;;-145.52;100.00;57022.44;5073701;28;19955;-68
2022/05/12 10:50:23;;;;;;;4.40;0.40;;;;;;;-145.52;100.00;57022.44;5073315;28;20387;-68
2022/05/12 10:53:09;;;;;;;1.13;0.30;;;;;;;-145.52;100.00;57022.44;5075068;28;20039;-67
2022/05/12 10:55:53;;;;;;;2.53;0.40;;;;;;;-145.52;100.00;57022.44;5071543;28;20044;-67
2022/05/12 10:58:26;;;;;;;1.20;0.30;;;;;;;-145.52;100.00;57022.44;5073945;28;20036;-68
2022/05/12 11:01:10;;;;;;;0.65;0.40;;;;;;;-145.52;100.00;57022.44;5074743;28;20566;-67
2022/05/12 11:04:00;;;;;;;2.42;0.98;;;;;;;-145.52;100.00;57022.44;5074054;28;20139;-68
2022/05/12 11:06:35;;;;;;;1.38;0.55;;;;;;;-145.52;100.00;57022.44;5076033;28;20070;-69
2022/05/12 11:09:14;;;;;;;2.40;0.43;;;;;;;-145.52;100.00;57022.44;5075838;28;20165;-68
2022/05/12 11:11:45;;;;;;;2.35;0.70;;;;;;;-145.52;100.00;57022.44;5075994;28;20047;-68
2022/05/12 11:14:21;;;;;;;2.78;0.80;;;;;;;-145.52;100.00;57022.44;5075701;28;20376;-69
2022/05/12 11:16:56;;;;;;;3.05;0.70;;;;;;;-145.52;100.00;57022.44;5075202;28;20028;-67
2022/05/12 11:19:25;;;;;;;1.10;0.50;;;;;;;-145.52;100.00;57022.44;5075936;28;20028;-68
2022/05/12 11:22:08;;;;;;;4.35;0.70;;;;;;;-145.52;100.00;57022.44;5073987;28;20021;-67
2022/05/12 11:24:52;;;;;;;2.33;0.68;;;;;;;-145.52;100.00;57022.44;5074429;28;20482;-69
2022/05/12 11:27:39;;;;;;;2.55;0.70;;;;;;;-145.52;100.00;57022.44;5075113;28;20107;-69
2022/05/12 11:30:24;;;;;;;4.85;0.73;;;;;;;-145.52;100.00;57022.44;5074959;28;20032;-68